Time;durP1;ratioP1;P1;durP2;ratioP2;P2;SDS_P1;SDS_P2;PMS_P1;PMS_P2;Temp;Humidity;BMP_temperature;BMP_pressure;BME280_temperature;BME280_humidity;BME280_pressure;Samples;Min_cycle;Max_cycle;Signal;HPM_P1;HPM_P2
2022/06/10 00:00:33;;;;;;;7.70;3.30;;;;;;;;;;5113699;28;20800;-71
2022/06/10 00:03:02;;;;;;;7.37;3.47;;;;;;;;;;5116100;28;20522;-71
2022/06/10 00:05:31;;;;;;;6.93;3.83;;;;;;;;;;5114824;28;20456;-71
2022/06/10 00:07:59;;;;;;;9.03;3.23;;;;;;;;;;5114862;28;20546;-71
2022/06/10 00:10:28;;;;;;;8.00;3.00;;;;;;;;;;5114961;28;20553;-71
2022/06/10 00:12:57;;;;;;;6.77;3.60;;;;;;;;;;5116005;28;20486;-71
2022/06/10 00:15:25;;;;;;;4.30;2.80;;;;;;;;;;5118233;28;20560;-71
2022/06/10 00:17:54;;;;;;;5.90;3.10;;;;;;;;;;5117851;27;20511;-71
2022/06/10 00:20:25;;;;;;;8.67;3.57;;;;;;;;;;5118611;27;20514;-71
2022/06/10 00:22:53;;;;;;;7.40;2.87;;;;;;;;;;5117812;28;20471;-72
2022/06/10 00:25:21;;;;;;;7.03;4.20;;;;;;;;;;5118863;27;20454;-71
2022/06/10 00:27:50;;;;;;;8.33;3.30;;;;;;;;;;5118076;28;20948;-72
2022/06/10 00:30:19;;;;;;;4.60;4.00;;;;;;;;;;5118083;27;20458;-73
2022/06/10 00:32:47;;;;;;;11.73;4.60;;;;;;;;;;5118360;27;20485;-73
2022/06/10 00:35:19;;;;;;;6.50;3.20;;;;;;;;;;5117172;27;20464;-72
2022/06/10 00:37:47;;;;;;;8.30;3.57;;;;;;;;;;5118933;28;20466;-72
2022/06/10 00:40:17;;;;;;;6.37;3.93;;;;;;;;;;5119490;27;20692;-72
2022/06/10 00:42:45;;;;;;;6.70;3.40;;;;;;;;;;5118842;27;20459;-71
2022/06/10 00:45:31;;;;;;;7.83;3.70;;;;;;;;;;5118959;27;20935;-71
2022/06/10 00:47:59;;;;;;;8.17;3.57;;;;;;;;;;5118446;27;20878;-71
2022/06/10 00:50:30;;;;;;;6.90;4.50;;;;;;;;;;5118722;27;20476;-70
2022/06/10 00:52:59;;;;;;;5.40;4.20;;;;;;;;;;5118603;27;20494;-71
2022/06/10 00:55:29;;;;;;;10.10;3.50;;;;;;;;;;5118507;27;20443;-71
2022/06/10 00:58:01;;;;;;;6.23;3.30;;;;;;;;;;5119078;27;20461;-71
2022/06/10 01:00:29;;;;;;;4.63;3.47;;;;;;;;;;5119364;27;20486;-71
2022/06/10 01:02:57;;;;;;;7.30;3.50;;;;;;;;;;5119074;27;21091;-71
2022/06/10 01:05:29;;;;;;;5.53;3.97;;;;;;;;;;5119012;28;20473;-70
2022/06/10 01:07:59;;;;;;;7.30;3.20;;;;;;;;;;5118406;27;20478;-71
2022/06/10 01:10:28;;;;;;;7.07;3.57;;;;;;;;;;5118965;27;20458;-70
2022/06/10 01:13:04;;;;;;;6.70;3.30;;;;;;;;;;5117996;27;20576;-71
2022/06/10 01:15:34;;;;;;;10.03;4.37;;;;;;;;;;5118695;27;20533;-71
2022/06/10 01:18:14;;;;;;;5.83;3.60;;;;;;;;;;5118334;27;20550;-71
2022/06/10 01:20:50;;;;;;;8.30;5.53;;;;;;;;;;5118421;27;20515;-71
2022/06/10 01:23:40;;;;;;;6.40;3.77;;;;;;;;;;5118728;27;20548;-70
2022/06/10 01:27:47;;;;;;;9.27;3.77;;;;;;;;;;5117141;28;20473;-71
2022/06/10 01:29:42;;;;;;;6.80;3.77;;;;;;;;;;5117813;27;20530;-71
2022/06/10 01:32:14;;;;;;;5.70;3.67;;;;;;;;;;5118211;28;20807;-70
2022/06/10 01:34:46;;;;;;;5.40;3.20;;;;;;;;;;5118177;27;20443;-70
2022/06/10 01:37:17;;;;;;;6.53;3.80;;;;;;;;;;5117705;27;20555;-71
2022/06/10 01:39:49;;;;;;;5.93;3.40;;;;;;;;;;5117800;27;20760;-71
2022/06/10 01:42:23;;;;;;;8.37;3.40;;;;;;;;;;5117970;27;20461;-71
2022/06/10 01:44:54;;;;;;;8.40;3.73;;;;;;;;;;5118157;27;20458;-70
2022/06/10 01:47:25;;;;;;;6.13;2.80;;;;;;;;;;5117604;27;20544;-70
2022/06/10 01:49:56;;;;;;;6.07;3.20;;;;;;;;;;5117403;27;20498;-70
2022/06/10 01:52:28;;;;;;;6.27;3.93;;;;;;;;;;5117078;27;20569;-70
2022/06/10 01:55:06;;;;;;;7.20;3.60;;;;;;;;;;5117644;28;20553;-71
2022/06/10 01:57:43;;;;;;;4.83;3.50;;;;;;;;;;5117344;27;20450;-70
2022/06/10 02:00:13;;;;;;;6.43;3.07;;;;;;;;;;5117410;28;20785;-71
2022/06/10 02:02:45;;;;;;;4.90;3.70;;;;;;;;;;5117593;28;20515;-71
2022/06/10 02:05:15;;;;;;;7.50;3.90;;;;;;;;;;5117368;27;20490;-70
2022/06/10 02:07:46;;;;;;;6.13;3.33;;;;;;;;;;5117184;27;20681;-71
2022/06/10 02:10:21;;;;;;;7.80;4.17;;;;;;;;;;5116733;27;20787;-71
2022/06/10 02:12:51;;;;;;;6.90;3.23;;;;;;;;;;5117081;27;20937;-71
2022/06/10 02:15:23;;;;;;;9.30;4.00;;;;;;;;;;5117675;27;20458;-71
2022/06/10 02:17:54;;;;;;;8.37;3.57;;;;;;;;;;5116692;27;20488;-71
2022/06/10 02:20:26;;;;;;;9.63;3.80;;;;;;;;;;5116988;27;20462;-71
2022/06/10 02:22:56;;;;;;;5.83;3.67;;;;;;;;;;5116716;27;20465;-70
2022/06/10 02:25:25;;;;;;;6.97;3.80;;;;;;;;;;5116647;28;20558;-70
2022/06/10 02:27:57;;;;;;;6.93;3.40;;;;;;;;;;5116996;27;20451;-70
2022/06/10 02:30:27;;;;;;;8.37;3.70;;;;;;;;;;5116950;27;20758;-70
2022/06/10 02:32:59;;;;;;;9.73;3.87;;;;;;;;;;5115603;28;20485;-70
2022/06/10 02:35:29;;;;;;;5.30;3.97;;;;;;;;;;5116899;27;20523;-70
2022/06/10 02:38:06;;;;;;;15.33;4.20;;;;;;;;;;5116511;28;20466;-70
2022/06/10 02:40:36;;;;;;;4.60;3.83;;;;;;;;;;5116666;28;20743;-70
2022/06/10 02:43:07;;;;;;;8.10;4.13;;;;;;;;;;5116411;27;20466;-70
2022/06/10 02:45:39;;;;;;;4.90;3.23;;;;;;;;;;5116966;27;20523;-71
2022/06/10 02:48:11;;;;;;;7.20;3.73;;;;;;;;;;5115766;28;20557;-71
2022/06/10 02:50:40;;;;;;;7.50;3.87;;;;;;;;;;5116435;27;20463;-71
2022/06/10 02:53:08;;;;;;;5.13;3.70;;;;;;;;;;5117038;28;20551;-71
2022/06/10 02:55:38;;;;;;;5.10;3.60;;;;;;;;;;5116603;28;20456;-71
2022/06/10 03:01:16;;;;;;;6.30;3.93;;;;;;;;;;5115777;28;20437;-71
2022/06/10 03:04:08;;;;;;;6.07;3.63;;;;;;;;;;5116788;28;20843;-70
2022/06/10 03:06:41;;;;;;;6.00;4.13;;;;;;;;;;5097122;28;20510;-71
2022/06/10 03:09:12;;;;;;;8.80;4.60;;;;;;;;;;5116459;28;20538;-72
2022/06/10 03:11:42;;;;;;;7.00;4.40;;;;;;;;;;5116175;28;20458;-70
2022/06/10 03:14:14;;;;;;;7.87;3.80;;;;;;;;;;5116103;28;20664;-70
2022/06/10 03:16:49;;;;;;;4.80;3.60;;;;;;;;;;5116321;28;20458;-71
2022/06/10 03:19:31;;;;;;;6.83;4.20;;;;;;;;;;5116297;28;20455;-71
2022/06/10 03:22:09;;;;;;;8.60;5.40;;;;;;;;;;5116020;28;20871;-71
2022/06/10 03:24:42;;;;;;;8.77;4.33;;;;;;;;;;5116462;28;20490;-70
2022/06/10 03:27:16;;;;;;;7.33;4.73;;;;;;;;;;5116291;28;20494;-71
2022/06/10 03:29:50;;;;;;;5.43;3.97;;;;;;;;;;5115195;28;20451;-71
2022/06/10 03:32:21;;;;;;;5.23;4.20;;;;;;;;;;5116078;28;20910;-71
2022/06/10 03:34:51;;;;;;;8.43;4.77;;;;;;;;;;5115833;28;20487;-71
2022/06/10 03:37:22;;;;;;;6.13;3.57;;;;;;;;;;5115801;28;20464;-71
2022/06/10 03:39:53;;;;;;;7.97;3.83;;;;;;;;;;5115298;28;20454;-72
2022/06/10 03:42:22;;;;;;;5.03;3.60;;;;;;;;;;5115501;28;20920;-71
2022/06/10 03:44:52;;;;;;;7.30;4.53;;;;;;;;;;5116260;28;20533;-72
2022/06/10 03:47:27;;;;;;;7.03;4.17;;;;;;;;;;5115605;28;20454;-72
2022/06/10 03:49:58;;;;;;;6.27;3.50;;;;;;;;;;5117088;27;20465;-71
2022/06/10 03:52:29;;;;;;;6.90;4.57;;;;;;;;;;5120059;27;20515;-72
2022/06/10 03:54:57;;;;;;;7.30;4.30;;;;;;;;;;5119573;27;20471;-72
2022/06/10 03:57:25;;;;;;;7.43;4.00;;;;;;;;;;5119660;27;20650;-72
2022/06/10 03:59:53;;;;;;;6.70;3.97;;;;;;;;;;5119654;27;20699;-70
2022/06/10 04:02:21;;;;;;;5.23;3.83;;;;;;;;;;5119350;27;20453;-70
2022/06/10 04:04:51;;;;;;;5.80;4.10;;;;;;;;;;5118899;27;20458;-71
2022/06/10 04:07:20;;;;;;;6.57;4.30;;;;;;;;;;5119324;27;20480;-71
2022/06/10 04:09:50;;;;;;;5.43;4.03;;;;;;;;;;5117920;27;20443;-74
2022/06/10 04:12:21;;;;;;;7.53;5.00;;;;;;;;;;5119037;27;20454;-72
2022/06/10 04:14:49;;;;;;;6.60;4.27;;;;;;;;;;5119470;28;20859;-70
2022/06/10 04:17:17;;;;;;;5.73;4.17;;;;;;;;;;5119169;27;20885;-71
2022/06/10 04:19:45;;;;;;;6.50;4.13;;;;;;;;;;5119214;27;20483;-71
2022/06/10 04:22:14;;;;;;;4.60;4.10;;;;;;;;;;5119069;28;20765;-71
2022/06/10 04:24:42;;;;;;;7.57;4.50;;;;;;;;;;5119238;27;20474;-71
2022/06/10 04:27:11;;;;;;;10.40;4.67;;;;;;;;;;5118612;27;20457;-71
2022/06/10 04:29:39;;;;;;;6.40;5.53;;;;;;;;;;5118723;27;20466;-72
2022/06/10 04:32:07;;;;;;;6.10;4.20;;;;;;;;;;5119089;27;20459;-72
2022/06/10 04:34:36;;;;;;;6.90;3.90;;;;;;;;;;5119028;28;20465;-74
2022/06/10 04:37:04;;;;;;;29.63;8.80;;;;;;;;;;5119226;27;20485;-72
2022/06/10 04:39:32;;;;;;;10.00;5.37;;;;;;;;;;5118370;27;20465;-72
2022/06/10 04:42:01;;;;;;;5.80;4.60;;;;;;;;;;5118061;27;20531;-72
2022/06/10 04:44:30;;;;;;;7.30;5.10;;;;;;;;;;5118674;27;20635;-71
2022/06/10 04:46:58;;;;;;;8.47;5.10;;;;;;;;;;5118103;27;20462;-71
2022/06/10 04:49:26;;;;;;;12.30;5.60;;;;;;;;;;5118306;27;20546;-72
2022/06/10 04:51:54;;;;;;;6.43;5.83;;;;;;;;;;5118638;28;20559;-71
2022/06/10 04:54:22;;;;;;;7.63;5.10;;;;;;;;;;5118141;27;20549;-71
2022/06/10 04:56:49;;;;;;;9.67;4.53;;;;;;;;;;5112435;27;20478;-71
2022/06/10 04:59:17;;;;;;;8.83;4.50;;;;;;;;;;5098609;28;20454;-72
2022/06/10 05:01:47;;;;;;;6.90;3.33;;;;;;;;;;5097549;28;20570;-71
2022/06/10 05:04:15;;;;;;;4.37;3.30;;;;;;;;;;5096742;28;20447;-71
2022/06/10 05:06:44;;;;;;;9.90;4.00;;;;;;;;;;5096547;28;20464;-71
2022/06/10 05:09:11;;;;;;;9.40;3.87;;;;;;;;;;5095900;28;20454;-71
2022/06/10 05:11:39;;;;;;;5.83;3.40;;;;;;;;;;5095894;27;20467;-71
2022/06/10 05:14:07;;;;;;;5.40;3.00;;;;;;;;;;5095526;28;20703;-71
2022/06/10 05:16:35;;;;;;;5.43;3.47;;;;;;;;;;5096533;28;20455;-71
2022/06/10 05:19:04;;;;;;;7.80;3.77;;;;;;;;;;5096958;28;20460;-71
2022/06/10 05:21:32;;;;;;;13.40;3.43;;;;;;;;;;5094685;28;20546;-72
2022/06/10 05:24:00;;;;;;;5.63;2.83;;;;;;;;;;5112489;27;20455;-72
2022/06/10 05:26:29;;;;;;;5.43;3.23;;;;;;;;;;5117495;27;20472;-71
2022/06/10 05:28:57;;;;;;;7.37;2.93;;;;;;;;;;5115891;27;20454;-71
2022/06/10 05:31:24;;;;;;;5.90;3.30;;;;;;;;;;5112101;27;20592;-71
2022/06/10 05:36:40;;;;;;;7.63;3.03;;;;;;;;;;5094644;28;20446;-72
2022/06/10 05:39:08;;;;;;;6.00;3.40;;;;;;;;;;5095712;28;20560;-72
2022/06/10 05:44:22;;;;;;;4.97;2.60;;;;;;;;;;5112868;27;20440;-72
2022/06/10 05:46:50;;;;;;;4.60;2.00;;;;;;;;;;5111825;27;20466;-72
2022/06/10 05:49:18;;;;;;;6.73;2.60;;;;;;;;;;5106966;27;20469;-72
2022/06/10 05:51:48;;;;;;;5.00;2.20;;;;;;;;;;5115324;27;20818;-72
2022/06/10 05:54:16;;;;;;;6.87;2.83;;;;;;;;;;5115154;27;21145;-71
2022/06/10 05:56:45;;;;;;;5.13;2.00;;;;;;;;;;5115604;27;20941;-71
2022/06/10 05:59:13;;;;;;;5.47;2.37;;;;;;;;;;5113954;28;20451;-71
2022/06/10 06:01:44;;;;;;;8.33;2.37;;;;;;;;;;5114775;27;21122;-71
2022/06/10 06:04:12;;;;;;;7.60;2.20;;;;;;;;;;5095818;28;20463;-71
2022/06/10 06:06:41;;;;;;;6.60;2.47;;;;;;;;;;5094801;28;21041;-71
2022/06/10 06:09:11;;;;;;;7.50;2.50;;;;;;;;;;5094938;28;20459;-70
2022/06/10 06:11:39;;;;;;;7.60;1.80;;;;;;;;;;5093576;28;20610;-71
2022/06/10 06:14:07;;;;;;;8.13;2.10;;;;;;;;;;5093739;28;20574;-71
2022/06/10 06:16:35;;;;;;;4.90;1.93;;;;;;;;;;5093803;28;20471;-71
2022/06/10 06:19:05;;;;;;;5.73;1.57;;;;;;;;;;5093275;28;20463;-71
2022/06/10 06:21:33;;;;;;;8.93;2.30;;;;;;;;;;5093207;28;20463;-72
2022/06/10 06:24:01;;;;;;;7.03;1.77;;;;;;;;;;5093168;28;20526;-71
2022/06/10 06:26:39;;;;;;;4.47;2.07;;;;;;;;;;5094484;28;20576;-71
2022/06/10 06:29:07;;;;;;;4.53;1.70;;;;;;;;;;5095909;27;21144;-71
2022/06/10 06:31:35;;;;;;;8.17;1.47;;;;;;;;;;5114441;28;20447;-71
2022/06/10 06:34:06;;;;;;;8.87;1.93;;;;;;;;;;5114675;27;20773;-73
2022/06/10 06:36:39;;;;;;;7.27;2.40;;;;;;;;;;5114927;27;20899;-72
2022/06/10 06:39:07;;;;;;;7.40;1.63;;;;;;;;;;5114784;27;20524;-72
2022/06/10 06:41:39;;;;;;;5.37;1.40;;;;;;;;;;5113943;27;20758;-71
2022/06/10 06:44:07;;;;;;;5.00;2.10;;;;;;;;;;5114207;28;21194;-70
2022/06/10 06:46:37;;;;;;;4.53;2.23;;;;;;;;;;5109709;27;20504;-71
2022/06/10 06:49:06;;;;;;;6.07;1.70;;;;;;;;;;5102820;28;20450;-71
2022/06/10 06:51:35;;;;;;;8.77;2.60;;;;;;;;;;5113688;28;20466;-70
2022/06/10 06:54:03;;;;;;;6.87;2.40;;;;;;;;;;5111874;28;20505;-70
2022/06/10 06:56:31;;;;;;;7.93;1.77;;;;;;;;;;5113485;28;20502;-71
2022/06/10 06:59:04;;;;;;;5.77;2.00;;;;;;;;;;5114068;27;20730;-71
2022/06/10 07:01:36;;;;;;;9.47;1.50;;;;;;;;;;5108937;27;20874;-71
2022/06/10 07:04:06;;;;;;;4.10;1.20;;;;;;;;;;5109680;28;20745;-71
2022/06/10 07:06:42;;;;;;;4.67;1.20;;;;;;;;;;5109502;28;20469;-72
2022/06/10 07:09:10;;;;;;;4.33;1.43;;;;;;;;;;5109969;28;20533;-71
2022/06/10 07:11:38;;;;;;;8.40;2.43;;;;;;;;;;5112286;28;20473;-72
2022/06/10 07:14:08;;;;;;;5.10;1.60;;;;;;;;;;5113024;28;20481;-72
2022/06/10 07:16:36;;;;;;;10.70;1.47;;;;;;;;;;5113770;28;20489;-72
2022/06/10 07:19:04;;;;;;;3.70;1.07;;;;;;;;;;5114171;28;20465;-73
2022/06/10 07:21:33;;;;;;;4.47;2.03;;;;;;;;;;5112907;28;20486;-73
2022/06/10 07:24:00;;;;;;;10.20;1.90;;;;;;;;;;5114231;28;20465;-72
2022/06/10 07:26:28;;;;;;;6.23;1.40;;;;;;;;;;5110196;27;20933;-77
2022/06/10 07:28:56;;;;;;;3.50;1.50;;;;;;;;;;5117158;27;20461;-72
2022/06/10 07:31:26;;;;;;;4.50;1.50;;;;;;;;;;5100102;28;20473;-72
2022/06/10 07:33:54;;;;;;;5.97;2.13;;;;;;;;;;5109855;28;20482;-73
2022/06/10 07:36:22;;;;;;;3.90;1.40;;;;;;;;;;5117308;27;20460;-73
2022/06/10 07:44:20;;;;;;;9.67;1.40;;;;;;;;;;5116273;27;20438;-73
2022/06/10 07:46:50;;;;;;;4.60;1.30;;;;;;;;;;5116485;27;20462;-72
2022/06/10 07:49:18;;;;;;;3.63;1.20;;;;;;;;;;5115885;27;20801;-72
2022/06/10 07:51:47;;;;;;;4.13;1.30;;;;;;;;;;5116159;27;20473;-72
2022/06/10 07:54:16;;;;;;;5.23;1.67;;;;;;;;;;5116218;27;20504;-73
2022/06/10 07:56:44;;;;;;;5.10;1.20;;;;;;;;;;5108939;27;20469;-72
2022/06/10 07:59:14;;;;;;;5.43;1.30;;;;;;;;;;5117175;27;20945;-72
2022/06/10 08:01:43;;;;;;;7.07;1.50;;;;;;;;;;5116833;27;20515;-72
2022/06/10 08:04:13;;;;;;;5.17;1.40;;;;;;;;;;5117090;27;20454;-73
2022/06/10 08:06:42;;;;;;;6.20;2.10;;;;;;;;;;5112652;27;20456;-72
2022/06/10 08:09:14;;;;;;;6.50;2.03;;;;;;;;;;5109211;28;20575;-72
2022/06/10 08:11:45;;;;;;;9.53;2.07;;;;;;;;;;5118484;27;20466;-72
2022/06/10 08:14:15;;;;;;;6.13;1.70;;;;;;;;;;5118953;27;20507;-72
2022/06/10 08:16:43;;;;;;;4.30;1.20;;;;;;;;;;5111785;27;20705;-71
2022/06/10 08:19:13;;;;;;;3.33;1.10;;;;;;;;;;5110624;27;20467;-72
2022/06/10 08:24:27;;;;;;;5.60;1.50;;;;;;;;;;5116720;27;20707;-72
2022/06/10 08:26:59;;;;;;;4.03;1.17;;;;;;;;;;5111342;27;20873;-72
2022/06/10 08:29:37;;;;;;;3.97;1.20;;;;;;;;;;5106117;27;20506;-71
2022/06/10 08:32:08;;;;;;;3.20;1.23;;;;;;;;;;5121944;27;20469;-73
2022/06/10 08:34:47;;;;;;;13.73;2.53;;;;;;;;;;5117411;27;20840;-74
2022/06/10 08:37:15;;;;;;;5.27;1.93;;;;;;;;;;5110419;27;20513;-72
2022/06/10 08:39:43;;;;;;;10.80;1.53;;;;;;;;;;5107850;27;20462;-72
2022/06/10 08:42:21;;;;;;;5.23;1.17;;;;;;;;;;5108452;27;20862;-72
2022/06/10 08:44:52;;;;;;;3.20;1.40;;;;;;;;;;5116104;27;20468;-72
2022/06/10 08:47:37;;;;;;;5.40;1.90;;;;;;;;;;5109447;28;20463;-72
2022/06/10 08:50:22;;;;;;;4.40;1.40;;;;;;;;;;5113834;27;21126;-71
2022/06/10 08:52:55;;;;;;;7.70;1.70;;;;;;;;;;5111189;27;20469;-71
2022/06/10 08:55:33;;;;;;;3.00;1.53;;;;;;;;;;5106985;27;21204;-72
2022/06/10 08:58:03;;;;;;;6.20;1.90;;;;;;;;;;5111342;28;20545;-72
2022/06/10 09:00:40;;;;;;;6.60;1.60;;;;;;;;;;5103691;28;20467;-72
2022/06/10 09:03:15;;;;;;;5.23;1.53;;;;;;;;;;5099205;27;20556;-71
2022/06/10 09:05:47;;;;;;;5.90;1.90;;;;;;;;;;5112496;27;20515;-72
2022/06/10 09:08:17;;;;;;;5.87;1.40;;;;;;;;;;5114522;27;20474;-72
2022/06/10 09:10:46;;;;;;;5.80;1.67;;;;;;;;;;5113896;27;20451;-72
2022/06/10 09:13:35;;;;;;;6.20;1.90;;;;;;;;;;5111730;28;20485;-72
2022/06/10 09:16:17;;;;;;;5.47;1.47;;;;;;;;;;5108828;27;20535;-72
2022/06/10 09:18:54;;;;;;;6.43;1.63;;;;;;;;;;5108185;27;20762;-71
2022/06/10 09:21:34;;;;;;;7.83;2.47;;;;;;;;;;5112027;28;20947;-71
2022/06/10 09:24:04;;;;;;;3.37;1.33;;;;;;;;;;5106669;27;20468;-70
2022/06/10 09:26:36;;;;;;;6.00;1.23;;;;;;;;;;5109822;27;20490;-70
2022/06/10 09:29:04;;;;;;;6.27;1.70;;;;;;;;;;5114580;28;20489;-71
2022/06/10 09:31:38;;;;;;;6.97;2.17;;;;;;;;;;5115021;27;20631;-71
2022/06/10 09:34:11;;;;;;;4.63;1.33;;;;;;;;;;5116027;27;20457;-71
2022/06/10 09:36:44;;;;;;;4.07;1.53;;;;;;;;;;5113696;27;20465;-72
2022/06/10 09:42:01;;;;;;;4.57;1.40;;;;;;;;;;5113646;27;20525;-70
2022/06/10 09:44:42;;;;;;;6.43;2.50;;;;;;;;;;5115696;27;20458;-72
2022/06/10 09:47:21;;;;;;;5.33;1.50;;;;;;;;;;5114126;27;20533;-72
2022/06/10 09:50:00;;;;;;;7.20;2.23;;;;;;;;;;5113859;27;20467;-71
2022/06/10 09:52:42;;;;;;;11.00;2.47;;;;;;;;;;5110839;27;20465;-72
2022/06/10 09:55:25;;;;;;;8.03;1.40;;;;;;;;;;5111240;28;20588;-71
2022/06/10 09:58:24;;;;;;;2.73;1.47;;;;;;;;;;5112789;27;20454;-71
2022/06/10 10:00:59;;;;;;;5.07;2.13;;;;;;;;;;5031624;28;20459;-71
2022/06/10 10:03:54;;;;;;;4.20;1.53;;;;;;;;;;5098891;28;20469;-73
2022/06/10 10:06:29;;;;;;;3.30;1.57;;;;;;;;;;5107395;27;20569;-70
2022/06/10 10:09:04;;;;;;;4.97;1.50;;;;;;;;;;5116723;28;20472;-72
2022/06/10 10:11:50;;;;;;;4.03;1.50;;;;;;;;;;5113918;28;20527;-72
2022/06/10 10:14:23;;;;;;;4.70;1.40;;;;;;;;;;5112885;28;20443;-72
2022/06/10 10:16:59;;;;;;;3.70;1.83;;;;;;;;;;5115090;28;20527;-72
2022/06/10 10:19:40;;;;;;;6.93;1.73;;;;;;;;;;5113909;28;20537;-70
2022/06/10 10:22:22;;;;;;;5.33;1.63;;;;;;;;;;5108042;27;20463;-70
2022/06/10 10:24:58;;;;;;;5.20;1.77;;;;;;;;;;5112318;27;20735;-71
2022/06/10 10:27:31;;;;;;;5.60;1.60;;;;;;;;;;5106750;28;20454;-72
2022/06/10 10:30:00;;;;;;;3.80;1.73;;;;;;;;;;5114090;27;20478;-73
2022/06/10 10:32:32;;;;;;;6.10;1.80;;;;;;;;;;5112167;27;20443;-73
2022/06/10 10:35:03;;;;;;;3.67;1.40;;;;;;;;;;5106775;28;20479;-72
2022/06/10 10:37:33;;;;;;;3.70;1.70;;;;;;;;;;5108713;28;20477;-72
2022/06/10 10:40:08;;;;;;;6.97;1.73;;;;;;;;;;5113353;27;20491;-72
2022/06/10 10:42:40;;;;;;;9.27;2.10;;;;;;;;;;5111862;27;20523;-72
2022/06/10 10:45:13;;;;;;;6.77;1.70;;;;;;;;;;5108956;28;20551;-70
2022/06/10 10:47:54;;;;;;;6.00;1.50;;;;;;;;;;5089830;27;20465;-70
2022/06/10 10:50:24;;;;;;;4.57;1.77;;;;;;;;;;5101339;27;20455;-69
2022/06/10 10:53:02;;;;;;;8.73;2.30;;;;;;;;;;5109639;28;20470;-70
2022/06/10 10:55:35;;;;;;;4.30;1.97;;;;;;;;;;5109150;27;20489;-70
2022/06/10 10:58:08;;;;;;;5.77;1.50;;;;;;;;;;5113852;27;20462;-70
2022/06/10 11:00:41;;;;;;;7.17;1.87;;;;;;;;;;5106027;28;20730;-70
2022/06/10 11:03:24;;;;;;;4.43;1.43;;;;;;;;;;5107763;27;20462;-70
2022/06/10 11:06:00;;;;;;;5.20;1.93;;;;;;;;;;5106027;28;20977;-71
2022/06/10 11:08:32;;;;;;;8.83;2.03;;;;;;;;;;5114512;28;20883;-70
2022/06/10 11:11:17;;;;;;;4.93;1.63;;;;;;;;;;5110790;28;20474;-72
2022/06/10 11:14:08;;;;;;;5.27;1.50;;;;;;;;;;5113936;27;20518;-71
2022/06/10 11:16:57;;;;;;;4.70;2.33;;;;;;;;;;5110976;28;20487;-73
2022/06/10 11:19:50;;;;;;;3.07;1.50;;;;;;;;;;5106542;28;20465;-71
2022/06/10 11:22:30;;;;;;;9.67;2.23;;;;;;;;;;5101976;28;20467;-71
2022/06/10 11:25:18;;;;;;;4.40;1.73;;;;;;;;;;5103491;28;20666;-71
2022/06/10 11:28:15;;;;;;;3.63;1.50;;;;;;;;;;5110009;28;20837;-72
2022/06/10 11:30:50;;;;;;;3.60;1.43;;;;;;;;;;5108740;28;21017;-71
2022/06/10 11:36:16;;;;;;;6.57;1.80;;;;;;;;;;5094431;28;20475;-71
2022/06/10 11:38:52;;;;;;;3.73;2.60;;;;;;;;;;5113845;27;20935;-71
2022/06/10 11:41:29;;;;;;;5.53;1.97;;;;;;;;;;5108866;28;20494;-71
2022/06/10 11:46:59;;;;;;;8.53;2.33;;;;;;;;;;5106733;28;20559;-71
2022/06/10 11:49:30;;;;;;;7.07;2.00;;;;;;;;;;5109398;28;20455;-70
2022/06/10 11:52:01;;;;;;;9.10;2.57;;;;;;;;;;5107869;28;20466;-71
2022/06/10 12:00:09;;;;;;;8.33;2.63;;;;;;;;;;5065681;28;20454;-72
2022/06/10 12:02:45;;;;;;;6.27;1.77;;;;;;;;;;5100974;28;20471;-72
2022/06/10 12:08:23;;;;;;;5.70;2.00;;;;;;;;;;5100658;28;20465;-72
2022/06/10 12:11:03;;;;;;;4.47;1.83;;;;;;;;;;5107447;28;20465;-71
2022/06/10 12:13:37;;;;;;;5.97;1.53;;;;;;;;;;5107670;27;20847;-70
2022/06/10 12:16:05;;;;;;;3.57;1.43;;;;;;;;;;5108654;27;20487;-73
2022/06/10 12:18:38;;;;;;;4.53;1.80;;;;;;;;;;5110549;27;20458;-72
2022/06/10 12:21:07;;;;;;;2.53;1.37;;;;;;;;;;5108577;27;20464;-72
2022/06/10 12:23:37;;;;;;;2.67;1.40;;;;;;;;;;5114246;27;20823;-71
2022/06/10 12:26:08;;;;;;;7.47;3.50;;;;;;;;;;5110293;27;20474;-72
2022/06/10 12:29:10;;;;;;;4.27;2.17;;;;;;;;;;5107190;27;20450;-72
2022/06/10 12:31:46;;;;;;;5.90;1.77;;;;;;;;;;5103660;27;20457;-72
2022/06/10 12:37:17;;;;;;;4.40;2.10;;;;;;;;;;5109099;27;20470;-71
2022/06/10 12:39:59;;;;;;;4.27;1.57;;;;;;;;;;5106349;27;20536;-72
2022/06/10 12:42:39;;;;;;;7.00;2.07;;;;;;;;;;5108912;27;20754;-72
2022/06/10 12:45:13;;;;;;;5.83;2.07;;;;;;;;;;5106543;27;20561;-72
2022/06/10 12:47:43;;;;;;;7.20;1.50;;;;;;;;;;5104047;27;20509;-72
2022/06/10 12:50:43;;;;;;;2.87;1.33;;;;;;;;;;5102753;27;20462;-72
2022/06/10 12:53:32;;;;;;;4.50;1.50;;;;;;;;;;5024750;28;20489;-72
2022/06/10 12:56:03;;;;;;;8.60;5.43;;;;;;;;;;5107187;27;20505;-72
2022/06/10 12:58:47;;;;;;;3.10;1.57;;;;;;;;;;5108203;27;20458;-72
2022/06/10 13:01:16;;;;;;;6.07;1.83;;;;;;;;;;5107341;27;20912;-72
2022/06/10 13:03:48;;;;;;;3.90;2.00;;;;;;;;;;5108132;27;20477;-72
2022/06/10 13:06:31;;;;;;;7.00;2.13;;;;;;;;;;5112467;27;20463;-72
2022/06/10 13:09:02;;;;;;;4.20;2.60;;;;;;;;;;5113881;27;20486;-72
2022/06/10 13:11:32;;;;;;;4.83;2.20;;;;;;;;;;5116269;27;20537;-73
2022/06/10 13:14:18;;;;;;;3.60;1.60;;;;;;;;;;5116488;27;20729;-70
2022/06/10 13:16:48;;;;;;;4.70;1.90;;;;;;;;;;5108748;27;20530;-72
2022/06/10 13:19:45;;;;;;;8.63;2.30;;;;;;;;;;5115328;27;20535;-72
2022/06/10 13:22:35;;;;;;;3.37;1.60;;;;;;;;;;5110768;28;20481;-72
2022/06/10 13:25:26;;;;;;;7.90;2.17;;;;;;;;;;5110693;27;20575;-72
2022/06/10 13:27:55;;;;;;;4.03;2.07;;;;;;;;;;5112696;27;20755;-71
2022/06/10 13:30:27;;;;;;;3.90;1.90;;;;;;;;;;5109556;27;20466;-71
2022/06/10 13:32:58;;;;;;;3.83;1.63;;;;;;;;;;5111931;27;20547;-70
2022/06/10 13:35:32;;;;;;;4.13;1.73;;;;;;;;;;5113988;28;20782;-70
2022/06/10 13:38:04;;;;;;;3.10;1.43;;;;;;;;;;5114632;27;21041;-70
2022/06/10 13:40:40;;;;;;;2.97;1.30;;;;;;;;;;5113947;28;20459;-70
2022/06/10 13:43:10;;;;;;;7.17;2.50;;;;;;;;;;5109227;28;20450;-70
2022/06/10 13:45:40;;;;;;;4.10;1.60;;;;;;;;;;5113467;28;20492;-71
2022/06/10 13:48:24;;;;;;;3.43;1.57;;;;;;;;;;5114676;27;20434;-72
2022/06/10 13:53:38;;;;;;;2.77;1.40;;;;;;;;;;5110052;27;20435;-73
2022/06/10 13:56:19;;;;;;;5.10;1.40;;;;;;;;;;5114984;27;20534;-73
2022/06/10 13:58:53;;;;;;;7.43;1.60;;;;;;;;;;5111832;28;20527;-72
2022/06/10 14:01:25;;;;;;;3.37;1.93;;;;;;;;;;5109762;27;20467;-70
2022/06/10 14:03:57;;;;;;;3.10;1.33;;;;;;;;;;5106199;27;20491;-72
2022/06/10 14:06:37;;;;;;;3.80;1.20;;;;;;;;;;5103511;27;20478;-72
2022/06/10 14:09:11;;;;;;;4.63;1.47;;;;;;;;;;5115257;28;20477;-72
2022/06/10 14:11:58;;;;;;;4.10;1.33;;;;;;;;;;5111701;27;20801;-72
2022/06/10 14:14:26;;;;;;;4.40;1.50;;;;;;;;;;5100907;27;20801;-72
2022/06/10 14:17:02;;;;;;;4.40;1.67;;;;;;;;;;5105540;28;20510;-71
2022/06/10 14:19:39;;;;;;;3.00;1.20;;;;;;;;;;5114515;27;20461;-71
2022/06/10 14:22:11;;;;;;;3.67;1.20;;;;;;;;;;5111465;27;20466;-71
2022/06/10 14:24:40;;;;;;;2.80;1.90;;;;;;;;;;5114471;27;20454;-71
2022/06/10 14:27:22;;;;;;;3.87;1.33;;;;;;;;;;5115812;27;20615;-70
2022/06/10 14:29:51;;;;;;;3.27;1.00;;;;;;;;;;5115175;28;20454;-70
2022/06/10 14:32:27;;;;;;;3.13;1.17;;;;;;;;;;5115401;27;20528;-71
2022/06/10 14:34:55;;;;;;;3.47;1.30;;;;;;;;;;5115112;27;20438;-71
2022/06/10 14:37:32;;;;;;;3.13;1.20;;;;;;;;;;5098529;28;20587;-71
2022/06/10 14:40:04;;;;;;;4.53;1.50;;;;;;;;;;5100309;28;20463;-71
2022/06/10 14:42:36;;;;;;;2.37;1.00;;;;;;;;;;5112795;28;20494;-71
2022/06/10 14:45:18;;;;;;;5.30;1.20;;;;;;;;;;5114122;27;20535;-71
2022/06/10 14:48:14;;;;;;;3.27;1.00;;;;;;;;;;5114379;28;20549;-72
2022/06/10 14:51:21;;;;;;;1.70;0.80;;;;;;;;;;5110045;27;20541;-72
2022/06/10 14:53:57;;;;;;;5.63;1.10;;;;;;;;;;5112896;27;20466;-72
2022/06/10 14:56:35;;;;;;;4.23;0.97;;;;;;;;;;5112923;28;20490;-72
2022/06/10 14:59:20;;;;;;;12.10;1.37;;;;;;;;;;5113729;28;20881;-71
2022/06/10 15:01:52;;;;;;;2.17;0.70;;;;;;;;;;5107858;28;20450;-72
2022/06/10 15:04:20;;;;;;;2.63;0.90;;;;;;;;;;5114345;27;20451;-71
2022/06/10 15:06:48;;;;;;;4.00;1.00;;;;;;;;;;5111953;28;20505;-72
2022/06/10 15:09:21;;;;;;;5.10;1.10;;;;;;;;;;5112537;28;20490;-73
2022/06/10 15:11:55;;;;;;;2.43;0.90;;;;;;;;;;5113264;28;20446;-71
2022/06/10 15:14:26;;;;;;;2.73;1.00;;;;;;;;;;5113909;28;20473;-72
2022/06/10 15:16:55;;;;;;;2.93;1.00;;;;;;;;;;5113638;28;20487;-71
2022/06/10 15:19:23;;;;;;;3.40;1.10;;;;;;;;;;5112716;28;20824;-71
2022/06/10 15:21:53;;;;;;;2.53;0.97;;;;;;;;;;5112187;28;21124;-71
2022/06/10 15:24:24;;;;;;;2.70;0.87;;;;;;;;;;5114446;28;20459;-71
2022/06/10 15:27:04;;;;;;;2.70;0.90;;;;;;;;;;5120258;28;20851;-72
2022/06/10 15:29:35;;;;;;;2.73;1.10;;;;;;;;;;5117122;28;20465;-71
2022/06/10 15:32:08;;;;;;;3.57;1.00;;;;;;;;;;5109667;28;21055;-72
2022/06/10 15:40:42;;;;;;;3.93;1.10;;;;;;;;;;5110931;28;20534;-72
2022/06/10 15:43:13;;;;;;;3.50;1.10;;;;;;;;;;5106637;28;20438;-71
2022/06/10 15:45:41;;;;;;;3.80;1.00;;;;;;;;;;5115686;27;20450;-72
2022/06/10 15:48:11;;;;;;;5.33;1.03;;;;;;;;;;5117395;27;20541;-72
2022/06/10 15:50:41;;;;;;;2.87;1.20;;;;;;;;;;5118563;28;20458;-71
2022/06/10 15:53:09;;;;;;;2.37;0.90;;;;;;;;;;5117492;27;20470;-73
2022/06/10 15:58:27;;;;;;;2.63;0.90;;;;;;;;;;5117209;27;20446;-73
2022/06/10 16:00:56;;;;;;;2.10;0.97;;;;;;;;;;5117200;27;20459;-73
2022/06/10 16:03:32;;;;;;;3.57;1.30;;;;;;;;;;5115583;27;20508;-73
2022/06/10 16:06:02;;;;;;;2.83;0.90;;;;;;;;;;5114920;27;20515;-73